createdAt,value
2019-04-28T00:02:50.841Z,99009.11
2019-04-28T00:06:04.520Z,99007.27
2019-04-28T00:09:18.359Z,99004.30
2019-04-28T00:12:31.943Z,99008.95
2019-04-28T00:15:45.773Z,99002.42
2019-04-28T00:19:00.919Z,99009.87
2019-04-28T00:22:26.931Z,99009.27
2019-04-28T00:25:44.889Z,99005.13
2019-04-28T00:28:58.359Z,99003.13
2019-04-28T00:32:11.963Z,99002.73
2019-04-28T00:35:25.829Z,99001.45
2019-04-28T00:38:39.311Z,98996.30
2019-04-28T00:41:54.477Z,98996.53
2019-04-28T00:45:08.498Z,98994.20
2019-04-28T00:48:21.987Z,98984.11
2019-04-28T00:51:35.479Z,98988.05
2019-04-28T00:54:49.475Z,98985.51
2019-04-28T00:58:03.163Z,98987.03
2019-04-28T01:01:21.355Z,98977.95
2019-04-28T01:04:34.925Z,98982.16
2019-04-28T01:07:48.747Z,98979.66
2019-04-28T01:11:02.319Z,98974.35
2019-04-28T01:14:16.088Z,98984.54
2019-04-28T01:17:49.603Z,98978.92
2019-04-28T01:21:03.559Z,98976.83
2019-04-28T01:24:17.288Z,98982.36
2019-04-28T01:27:50.829Z,98977.58
2019-04-28T01:31:14.492Z,98970.69
2019-04-28T01:34:29.992Z,98976.58
2019-04-28T01:37:43.497Z,98982.14
2019-04-28T01:40:56.990Z,98975.78
2019-04-28T01:44:10.587Z,98980.40
2019-04-28T01:47:24.312Z,98990.81
2019-04-28T01:50:39.893Z,99000.66
2019-04-28T01:53:53.577Z,98994.25
2019-04-28T01:57:07.156Z,98992.84
2019-04-28T02:00:25.375Z,98990.72
2019-04-28T02:03:36.461Z,98983.09
2019-04-28T02:06:50.164Z,98996.94
2019-04-28T02:10:04.449Z,98996.53
2019-04-28T02:13:19.882Z,98999.40
2019-04-28T02:16:33.596Z,98992.84
2019-04-28T02:19:47.365Z,99000.81
2019-04-28T02:23:09.888Z,99008.06
2019-04-28T02:26:24.004Z,98999.83
2019-04-28T02:29:37.730Z,99003.36
2019-04-28T02:32:51.941Z,99005.05
2019-04-28T02:36:08.688Z,98998.88
2019-04-28T02:39:21.333Z,99004.64
2019-04-28T02:42:34.947Z,99006.97
2019-04-28T02:45:53.485Z,99004.05
2019-04-28T02:49:10.236Z,99009.13
2019-04-28T02:52:43.609Z,99006.94
2019-04-28T02:55:57.099Z,99005.74
2019-04-28T02:59:11.072Z,98994.09
2019-04-28T03:02:25.272Z,98998.58
2019-04-28T03:05:41.243Z,98995.27
2019-04-28T03:08:54.375Z,98986.80
2019-04-28T03:12:08.060Z,98992.59
2019-04-28T03:15:21.554Z,98987.94
2019-04-28T03:18:35.947Z,98990.65
2019-04-28T03:21:51.070Z,98994.09
2019-04-28T03:25:07.063Z,98993.23
2019-04-28T03:28:26.998Z,98995.14
2019-04-28T03:32:18.261Z,98998.36
2019-04-28T03:35:13.587Z,98997.14
2019-04-28T03:38:27.257Z,99000.23
2019-04-28T03:41:40.943Z,98993.62
2019-04-28T03:44:56.723Z,99000.88
2019-04-28T03:48:11.442Z,98998.16
2019-04-28T03:51:25.034Z,99000.70
2019-04-28T03:54:41.059Z,99008.38
2019-04-28T03:57:54.018Z,98998.41
2019-04-28T04:01:10.435Z,99004.86
2019-04-28T04:04:23.495Z,98999.05
2019-04-28T04:07:37.235Z,99000.28
2019-04-28T04:11:15.115Z,99002.23
2019-04-28T04:14:50.901Z,99002.98
2019-04-28T04:18:11.082Z,99003.70
2019-04-28T04:21:24.699Z,99007.05
2019-04-28T04:24:40.319Z,99000.02
2019-04-28T04:27:53.578Z,98996.20
2019-04-28T04:31:07.308Z,99002.91
2019-04-28T04:34:20.806Z,98997.34
2019-04-28T04:37:34.397Z,98996.74
2019-04-28T04:40:48.095Z,99001.48
2019-04-28T04:44:01.698Z,99001.64
2019-04-28T04:47:15.454Z,99006.81
2019-04-28T04:50:31.460Z,99009.03
2019-04-28T04:53:44.362Z,99010.72
2019-04-28T04:56:59.923Z,99011.77
2019-04-28T05:00:20.981Z,99017.54
2019-04-28T05:03:36.499Z,99018.00
2019-04-28T05:06:50.004Z,99016.85
2019-04-28T05:10:04.501Z,99024.68
2019-04-28T05:16:33.183Z,99016.00
2019-04-28T05:19:46.677Z,99031.79
2019-04-28T05:23:12.600Z,99020.73
2019-04-28T05:26:26.097Z,99032.34
2019-04-28T05:29:39.934Z,99033.90
2019-04-28T05:32:56.248Z,99029.42
2019-04-28T05:36:11.687Z,99039.62
2019-04-28T05:39:25.286Z,99042.08
2019-04-28T05:42:41.977Z,99040.23
2019-04-28T05:45:55.475Z,99040.58
2019-04-28T05:49:15.465Z,99048.05
2019-04-28T05:52:35.128Z,99039.99
2019-04-28T05:55:56.408Z,99050.93
2019-04-28T05:59:14.259Z,99048.37
2019-04-28T06:02:31.858Z,99050.28
2019-04-28T06:05:45.635Z,99046.45
2019-04-28T06:09:24.250Z,99041.05
2019-04-28T06:12:37.757Z,99044.80
2019-04-28T06:15:51.364Z,99040.43
2019-04-28T06:19:04.955Z,99049.98
2019-04-28T06:22:18.563Z,99054.89
2019-04-28T06:25:32.065Z,99050.09
2019-04-28T06:28:45.776Z,99049.17
2019-04-28T06:31:59.800Z,99060.97
2019-04-28T06:35:13.393Z,99064.98
2019-04-28T06:38:26.896Z,99067.10
2019-04-28T06:41:40.651Z,99069.25
2019-04-28T06:44:54.243Z,99074.48
2019-04-28T06:48:07.863Z,99075.43
2019-04-28T06:51:21.405Z,99082.23
2019-04-28T06:54:35.006Z,99083.44
2019-04-28T06:57:48.777Z,99085.45
2019-04-28T07:01:02.497Z,99087.78
2019-04-28T07:04:16.348Z,99081.73
2019-04-28T07:07:30.092Z,99084.52
2019-04-28T07:10:44.047Z,99076.20
2019-04-28T07:13:58.458Z,99074.69
2019-04-28T07:17:12.633Z,99078.28
2019-04-28T07:20:37.476Z,99084.02
2019-04-28T07:23:51.881Z,99085.48
2019-04-28T07:27:07.221Z,99090.09
2019-04-28T07:30:21.626Z,99085.38
2019-04-28T07:33:36.335Z,99086.44
2019-04-28T07:36:50.500Z,99086.59
2019-04-28T07:40:04.683Z,99098.86
2019-04-28T07:43:18.420Z,99085.90
2019-04-28T07:46:32.055Z,99084.88
2019-04-28T07:49:45.965Z,99092.70
2019-04-28T07:53:09.179Z,99093.60
2019-04-28T07:56:22.681Z,99096.23
2019-04-28T07:59:36.183Z,99109.56
2019-04-28T08:02:49.675Z,99105.45
2019-04-28T08:06:03.368Z,99112.30
2019-04-28T08:09:17.487Z,99112.06
2019-04-28T08:12:30.988Z,99114.72
2019-04-28T08:15:45.134Z,99114.72
2019-04-28T08:18:58.743Z,99119.30
2019-04-28T08:22:12.351Z,99116.45
2019-04-28T08:25:25.838Z,99116.00
2019-04-28T08:28:39.449Z,99117.58
2019-04-28T08:32:07.092Z,99115.30
2019-04-28T08:35:20.728Z,99118.11
2019-04-28T08:38:34.225Z,99107.36
2019-04-28T08:45:17.695Z,99103.50
2019-04-28T08:48:31.287Z,99103.22
2019-04-28T08:51:45.254Z,99099.44
2019-04-28T08:54:58.999Z,99095.91
2019-04-28T08:58:12.736Z,99096.73
2019-04-28T09:01:26.656Z,99097.09
2019-04-28T09:04:40.451Z,99096.94
2019-04-28T09:07:54.119Z,99091.99
2019-04-28T09:11:07.928Z,99093.96
2019-04-28T09:14:21.960Z,99093.05
2019-04-28T09:17:35.751Z,99090.53
2019-04-28T09:20:49.795Z,99080.78
2019-04-28T09:24:03.903Z,99088.70
2019-04-28T09:27:17.950Z,99086.81
2019-04-28T09:30:35.442Z,99094.08
2019-04-28T09:33:49.191Z,99095.48
2019-04-28T09:37:02.948Z,99095.89
2019-04-28T09:40:16.947Z,99099.27
2019-04-28T09:43:49.557Z,99105.06
2019-04-28T09:47:03.542Z,99101.72
2019-04-28T09:50:17.449Z,99102.98
2019-04-28T09:53:31.713Z,99093.20
2019-04-28T09:56:56.039Z,99098.33
2019-04-28T10:00:01.620Z,99089.52
2019-04-28T10:03:15.296Z,99083.36
2019-04-28T10:06:29.514Z,99075.09
2019-04-28T10:09:43.301Z,99077.13
2019-04-28T10:12:57.290Z,99070.98
2019-04-28T10:16:11.531Z,99070.36
2019-04-28T10:19:25.893Z,99074.61
2019-04-28T10:22:40.245Z,99071.37
2019-04-28T10:25:54.115Z,99066.30
2019-04-28T10:29:07.808Z,99059.08
2019-04-28T10:32:21.536Z,99055.97
2019-04-28T10:35:35.458Z,99060.58
2019-04-28T10:38:51.081Z,99056.50
2019-04-28T10:42:04.836Z,99043.95
2019-04-28T10:45:21.738Z,99047.98
2019-04-28T10:48:36.113Z,99047.60
2019-04-28T10:51:59.130Z,99052.88
2019-04-28T10:55:06.585Z,99072.61
2019-04-28T10:58:21.515Z,99070.13
2019-04-28T11:01:35.228Z,99060.45
2019-04-28T11:05:12.122Z,99060.05
2019-04-28T11:08:49.200Z,99059.96
2019-04-28T11:12:04.880Z,99073.11
2019-04-28T11:15:32.956Z,99056.94
2019-04-28T11:18:46.672Z,99068.17
2019-04-28T11:25:34.794Z,99076.68
2019-04-28T11:28:48.865Z,99076.89
2019-04-28T11:32:03.578Z,99076.36
2019-04-28T11:35:27.167Z,99078.95
2019-04-28T11:38:45.827Z,99069.95
2019-04-28T11:42:00.295Z,99073.39
2019-04-28T11:45:14.674Z,99070.22
2019-04-28T11:48:28.709Z,99067.77
2019-04-28T11:51:43.164Z,99066.27
2019-04-28T11:54:58.181Z,99066.58
2019-04-28T11:58:11.980Z,99062.61
2019-04-28T12:01:25.488Z,99058.47
2019-04-28T12:04:39.443Z,99065.32
2019-04-28T12:07:53.617Z,99058.31
2019-04-28T12:11:28.420Z,99068.73
2019-04-28T12:16:59.482Z,99047.66
2019-04-28T12:20:21.855Z,99037.39
2019-04-28T12:23:35.568Z,99042.26
2019-04-28T12:26:51.738Z,99040.52
2019-04-28T12:30:05.777Z,99041.00
2019-04-28T12:33:19.360Z,99045.25
2019-04-28T12:36:32.996Z,99048.47
2019-04-28T12:39:46.873Z,99063.55
2019-04-28T12:43:00.378Z,99056.66
2019-04-28T12:46:14.043Z,99068.70
2019-04-28T12:49:36.876Z,99064.31
2019-04-28T12:52:50.499Z,99070.02
2019-04-28T12:56:04.277Z,99067.89
2019-04-28T12:59:23.237Z,99069.59
2019-04-28T13:03:16.398Z,99071.82
2019-04-28T13:06:30.137Z,99072.15
2019-04-28T13:09:44.058Z,99072.11
2019-04-28T13:12:57.678Z,99069.58
2019-04-28T13:16:11.938Z,99064.65
2019-04-28T13:19:25.918Z,99065.27
2019-04-28T13:22:39.596Z,99063.23
2019-04-28T13:25:53.702Z,99067.74
2019-04-28T13:29:07.279Z,99068.95
2019-04-28T13:32:21.115Z,99075.91
2019-04-28T13:35:35.739Z,99071.34
2019-04-28T13:38:49.251Z,99080.30
2019-04-28T13:42:03.502Z,99067.25
2019-04-28T13:45:19.909Z,99071.30
2019-04-28T13:48:33.748Z,99069.28
2019-04-28T13:51:47.454Z,99067.91
2019-04-28T13:55:24.530Z,99069.27
2019-04-28T13:58:40.626Z,99066.00
2019-04-28T14:02:01.943Z,99065.97
2019-04-28T14:05:30.323Z,99069.93
2019-04-28T14:08:44.209Z,99067.60
2019-04-28T14:11:57.966Z,99061.67
2019-04-28T14:15:11.640Z,99050.14
2019-04-28T14:18:25.243Z,99042.23
2019-04-28T14:21:38.939Z,99047.83
2019-04-28T14:24:52.566Z,99054.38
2019-04-28T14:28:06.289Z,99046.83
2019-04-28T14:31:20.068Z,99052.89
2019-04-28T14:34:33.624Z,99049.95
2019-04-28T14:37:47.383Z,99050.61
2019-04-28T14:41:01.140Z,99048.32
2019-04-28T14:44:17.579Z,99051.78
2019-04-28T14:47:30.238Z,99058.52
2019-04-28T14:50:44.275Z,99068.19
2019-04-28T14:53:58.027Z,99058.52
2019-04-28T14:57:11.857Z,99068.10
2019-04-28T15:00:32.068Z,99067.48
2019-04-28T15:03:48.413Z,99059.66
2019-04-28T15:07:07.836Z,99069.63
2019-04-28T15:10:33.943Z,99067.34
2019-04-28T15:13:47.698Z,99064.57
2019-04-28T15:17:01.364Z,99053.03
2019-04-28T15:20:15.369Z,99054.94
2019-04-28T15:23:28.857Z,99046.38
2019-04-28T15:26:42.711Z,99049.12
2019-04-28T15:29:56.190Z,99047.78
2019-04-28T15:33:09.856Z,99052.03
2019-04-28T15:36:23.350Z,99052.90
2019-04-28T15:39:36.840Z,99058.48
2019-04-28T15:42:50.599Z,99061.89
2019-04-28T15:46:04.304Z,99073.56
2019-04-28T15:49:17.821Z,99076.70
2019-04-28T15:52:31.665Z,99079.42
2019-04-28T15:55:55.370Z,99070.38
2019-04-28T15:59:09.881Z,99068.98
2019-04-28T16:02:24.010Z,99073.10
2019-04-28T16:05:37.673Z,99076.26
2019-04-28T16:08:51.517Z,99072.70
2019-04-28T16:12:05.400Z,99072.24
2019-04-28T16:15:19.399Z,99074.27
2019-04-28T16:18:33.061Z,99076.39
2019-04-28T16:21:46.924Z,99073.72
2019-04-28T16:25:00.996Z,99076.41
2019-04-28T16:28:15.245Z,99079.37
2019-04-28T16:31:29.045Z,99072.34
2019-04-28T16:34:43.014Z,99062.95
2019-04-28T16:37:57.222Z,99063.30
2019-04-28T16:41:11.346Z,99064.17
2019-04-28T16:44:25.808Z,99059.56
2019-04-28T16:47:39.589Z,99058.53
2019-04-28T16:50:53.323Z,99059.50
2019-04-28T16:54:07.180Z,99068.66
2019-04-28T16:57:37.796Z,99069.38
2019-04-28T17:01:29.491Z,99067.63
2019-04-28T17:04:43.367Z,99065.95
2019-04-28T17:07:57.828Z,99067.99
2019-04-28T17:11:12.061Z,99074.23
2019-04-28T17:14:26.042Z,99077.40
2019-04-28T17:17:40.435Z,99076.69
2019-04-28T17:20:55.175Z,99089.98
2019-04-28T17:24:09.202Z,99101.10
2019-04-28T17:27:23.731Z,99102.95
2019-04-28T17:30:37.891Z,99103.22
2019-04-28T17:33:52.006Z,99102.20
2019-04-28T17:37:06.596Z,99111.80
2019-04-28T17:40:22.321Z,99114.21
2019-04-28T17:43:37.032Z,99120.69
2019-04-28T17:46:51.109Z,99120.98
2019-04-28T17:50:06.208Z,99138.83
2019-04-28T17:53:20.310Z,99146.34
2019-04-28T17:56:33.922Z,99148.61
2019-04-28T17:59:49.419Z,99149.61
2019-04-28T18:03:14.691Z,99152.47
2019-04-28T18:06:28.983Z,99149.63
2019-04-28T18:09:42.574Z,99155.98
2019-04-28T18:13:00.798Z,99163.53
2019-04-28T18:16:29.816Z,99173.78
2019-04-28T18:19:43.419Z,99177.11
2019-04-28T18:22:57.153Z,99179.38
2019-04-28T18:26:10.661Z,99185.20
2019-04-28T18:29:24.610Z,99186.42
2019-04-28T18:33:03.617Z,99186.88
2019-04-28T18:36:24.153Z,99192.30
2019-04-28T18:39:56.304Z,99195.14
2019-04-28T18:43:19.833Z,99199.11
2019-04-28T18:46:33.604Z,99199.48
2019-04-28T18:49:47.128Z,99205.81
2019-04-28T18:53:00.709Z,99210.48
2019-04-28T18:56:14.459Z,99217.61
2019-04-28T18:59:27.952Z,99226.20
2019-04-28T19:02:44.377Z,99236.84
2019-04-28T19:05:57.972Z,99237.77
2019-04-28T19:09:27.859Z,99240.50
2019-04-28T19:13:01.359Z,99244.76
2019-04-28T19:16:33.708Z,99249.39
2019-04-28T19:19:47.324Z,99253.03
2019-04-28T19:23:00.927Z,99261.37
2019-04-28T19:26:14.690Z,99262.04
2019-04-28T19:29:28.183Z,99268.80
2019-04-28T19:32:41.668Z,99276.33
2019-04-28T19:35:55.727Z,99284.73
2019-04-28T19:39:09.230Z,99278.64
2019-04-28T19:42:22.729Z,99286.06
2019-04-28T19:45:38.236Z,99292.36
2019-04-28T19:48:52.033Z,99293.39
2019-04-28T19:52:05.730Z,99296.09
2019-04-28T19:55:23.512Z,99301.77
2019-04-28T19:58:41.422Z,99305.50
2019-04-28T20:01:55.128Z,99304.28
2019-04-28T20:05:09.052Z,99306.11
2019-04-28T20:08:22.731Z,99303.70
2019-04-28T20:11:36.320Z,99317.63
2019-04-28T20:14:49.846Z,99315.87
2019-04-28T20:18:03.533Z,99315.20
2019-04-28T20:21:17.023Z,99314.04
2019-04-28T20:24:30.525Z,99324.17
2019-04-28T20:27:44.126Z,99324.50
2019-04-28T20:30:57.611Z,99327.36
2019-04-28T20:34:11.415Z,99334.91
2019-04-28T20:37:34.885Z,99340.00
2019-04-28T20:40:57.600Z,99341.23
2019-04-28T20:44:11.075Z,99341.02
2019-04-28T20:47:24.557Z,99338.16
2019-04-28T20:50:38.148Z,99340.55
2019-04-28T20:53:51.627Z,99338.77
2019-04-28T20:57:05.131Z,99342.47
2019-04-28T21:00:19.061Z,99342.16
2019-04-28T21:03:33.043Z,99346.27
2019-04-28T21:06:46.566Z,99352.84
2019-04-28T21:09:59.995Z,99354.98
2019-04-28T21:16:30.634Z,99358.81
2019-04-28T21:19:44.224Z,99360.24
2019-04-28T21:22:57.737Z,99368.69
2019-04-28T21:26:11.247Z,99368.19
2019-04-28T21:29:24.726Z,99372.40
2019-04-28T21:32:38.894Z,99375.89
2019-04-28T21:35:52.388Z,99382.44
2019-04-28T21:39:07.728Z,99380.41
2019-04-28T21:42:23.786Z,99382.95
2019-04-28T21:46:01.908Z,99383.15
2019-04-28T21:49:29.570Z,99383.72
2019-04-28T21:52:43.131Z,99382.70
2019-04-28T21:55:56.719Z,99386.06
2019-04-28T21:59:10.529Z,99389.73
2019-04-28T22:02:24.015Z,99384.30
2019-04-28T22:05:37.585Z,99393.23
2019-04-28T22:08:51.393Z,99396.33
2019-04-28T22:12:04.988Z,99401.80
2019-04-28T22:15:18.728Z,99403.49
2019-04-28T22:18:32.466Z,99397.90
2019-04-28T22:21:46.070Z,99407.36
2019-04-28T22:25:09.326Z,99404.83
2019-04-28T22:28:22.807Z,99404.11
2019-04-28T22:31:36.446Z,99399.60
2019-04-28T22:34:49.900Z,99401.44
2019-04-28T22:38:03.610Z,99409.66
2019-04-28T22:41:17.087Z,99410.59
2019-04-28T22:44:31.035Z,99405.52
2019-04-28T22:47:44.599Z,99407.72
2019-04-28T22:50:58.188Z,99406.11
2019-04-28T22:54:24.148Z,99403.39
2019-04-28T22:57:47.808Z,99407.00
2019-04-28T23:01:07.091Z,99420.03
2019-04-28T23:04:33.774Z,99414.99
2019-04-28T23:07:47.287Z,99417.16
2019-04-28T23:11:00.949Z,99424.09
2019-04-28T23:14:14.906Z,99427.52
2019-04-28T23:17:28.597Z,99422.67
2019-04-28T23:20:44.079Z,99424.45
2019-04-28T23:23:57.792Z,99426.28
2019-04-28T23:27:11.367Z,99433.70
2019-04-28T23:30:35.934Z,99431.02
2019-04-28T23:33:49.836Z,99425.41
2019-04-28T23:37:03.523Z,99431.38
2019-04-28T23:40:17.200Z,99430.70
2019-04-28T23:43:30.683Z,99429.61
2019-04-28T23:46:57.541Z,99427.45
2019-04-28T23:50:13.144Z,99431.61
2019-04-28T23:53:44.772Z,99430.19
2019-04-28T23:56:58.472Z,99434.33
